Time;durP1;ratioP1;P1;durP2;ratioP2;P2;SDS_P1;SDS_P2;PMS_P1;PMS_P2;Temp;Humidity;BMP_temperature;BMP_pressure;BME280_temperature;BME280_humidity;BME280_pressure;Samples;Min_cycle;Max_cycle;Signal;HPM_P1;HPM_P2
2021/05/07 00:00:55;;;;;;;;;;;;;;;9.50;60.84;97929.55;2098379;84;20281;-74
2021/05/07 00:03:57;;;;;;;;;;;;;;;9.48;60.72;97919.64;2098329;84;20257;-73
2021/05/07 00:06:59;;;;;;;;;;;;;;;9.46;60.80;97913.70;2098470;84;20163;-73
2021/05/07 00:10:01;;;;;;;;;;;;;;;9.50;60.70;97913.36;2098380;84;20142;-73
2021/05/07 00:13:03;;;;;;;;;;;;;;;9.56;60.77;97910.78;2098382;85;20273;-73
2021/05/07 00:16:05;;;;;;;;;;;;;;;9.62;60.73;97914.75;2098317;84;20461;-73
2021/05/07 00:19:08;;;;;;;;;;;;;;;9.59;60.70;97911.87;2098359;84;20146;-73
2021/05/07 00:22:10;;;;;;;;;;;;;;;9.59;60.68;97909.25;2098353;84;20277;-73
2021/05/07 00:25:12;;;;;;;;;;;;;;;9.62;60.77;97908.20;2074445;85;20234;-74
2021/05/07 00:28:14;;;;;;;;;;;;;;;9.64;60.85;97903.22;2087522;84;20145;-73
2021/05/07 00:31:17;;;;;;;;;;;;;;;9.66;60.65;97897.39;2101101;84;20137;-73
2021/05/07 00:34:19;;;;;;;;;;;;;;;9.66;60.74;97900.02;2127288;84;20232;-73
2021/05/07 00:37:21;;;;;;;;;;;;;;;9.67;60.82;97893.83;2127274;84;20232;-73
2021/05/07 00:40:23;;;;;;;;;;;;;;;9.71;60.75;97890.05;2127396;84;20623;-73
2021/05/07 00:43:25;;;;;;;;;;;;;;;9.69;60.80;97892.41;2127473;84;20165;-73
2021/05/07 00:46:27;;;;;;;;;;;;;;;9.64;61.07;97893.20;2127323;84;20272;-74
2021/05/07 00:49:29;;;;;;;;;;;;;;;9.60;61.10;97888.67;2127258;84;20140;-73
2021/05/07 00:52:33;;;;;;;;;;;;;;;9.62;61.80;97890.70;2127640;84;20160;-73
2021/05/07 00:55:35;;;;;;;;;;;;;;;9.56;62.60;97886.39;2127247;84;20646;-73
2021/05/07 00:58:37;;;;;;;;;;;;;;;9.51;62.72;97877.54;2127223;84;20235;-73
2021/05/07 01:01:39;;;;;;;;;;;;;;;9.50;63.13;97878.03;2127287;84;20229;-73
2021/05/07 01:04:41;;;;;;;;;;;;;;;9.50;63.47;97873.27;2127237;84;20239;-74
2021/05/07 01:07:43;;;;;;;;;;;;;;;9.48;63.54;97876.45;2127348;84;20507;-74
2021/05/07 01:10:45;;;;;;;;;;;;;;;9.41;64.21;97872.16;2127341;84;20172;-74
2021/05/07 01:13:47;;;;;;;;;;;;;;;9.33;64.51;97864.83;2127273;84;20511;-74
2021/05/07 01:16:49;;;;;;;;;;;;;;;9.28;64.77;97854.33;2127334;84;20231;-74
2021/05/07 01:19:51;;;;;;;;;;;;;;;9.24;65.57;97860.27;2127266;84;20227;-74
2021/05/07 01:22:53;;;;;;;;;;;;;;;9.21;65.82;97857.02;2127384;84;20227;-73
2021/05/07 01:25:55;;;;;;;;;;;;;;;9.06;66.25;97857.63;2127151;84;20271;-74
2021/05/07 01:28:57;;;;;;;;;;;;;;;9.11;66.48;97862.09;2102535;84;20232;-74
2021/05/07 01:31:59;;;;;;;;;;;;;;;9.15;66.36;97853.05;2120661;84;20244;-73
2021/05/07 01:35:01;;;;;;;;;;;;;;;9.14;66.67;97847.47;2120746;84;20500;-73
2021/05/07 01:38:03;;;;;;;;;;;;;;;9.09;66.88;97841.23;2120896;84;20232;-73
2021/05/07 01:41:05;;;;;;;;;;;;;;;9.07;67.02;97837.08;2120988;84;20271;-74
2021/05/07 01:44:07;;;;;;;;;;;;;;;9.08;67.09;97827.81;2120889;84;20138;-73
2021/05/07 01:47:09;;;;;;;;;;;;;;;9.14;66.89;97825.23;2121280;84;20183;-74
2021/05/07 01:50:11;;;;;;;;;;;;;;;9.11;66.93;97824.16;2120836;84;20240;-74
2021/05/07 01:53:13;;;;;;;;;;;;;;;9.08;67.17;97812.57;2120847;84;20228;-74
2021/05/07 01:56:15;;;;;;;;;;;;;;;9.07;67.21;97814.84;2120782;84;20566;-74
2021/05/07 01:59:17;;;;;;;;;;;;;;;9.07;67.27;97804.38;2102746;84;20141;-74
2021/05/07 02:02:19;;;;;;;;;;;;;;;9.03;67.29;97802.92;2120909;84;20516;-74
2021/05/07 02:05:22;;;;;;;;;;;;;;;8.96;67.57;97802.52;2120891;84;20136;-74
2021/05/07 02:08:24;;;;;;;;;;;;;;;8.97;67.74;97802.41;2120749;84;20176;-74
2021/05/07 02:11:26;;;;;;;;;;;;;;;8.94;67.64;97798.70;2120798;84;20228;-74
2021/05/07 02:14:28;;;;;;;;;;;;;;;8.91;67.94;97789.77;2120789;84;20228;-73
2021/05/07 02:17:31;;;;;;;;;;;;;;;8.96;68.01;97798.11;2120762;84;20236;-74
2021/05/07 02:20:33;;;;;;;;;;;;;;;8.96;68.13;97798.59;2121031;84;20148;-73
2021/05/07 02:23:35;;;;;;;;;;;;;;;8.97;67.98;97795.86;2121031;84;20263;-73
2021/05/07 02:26:37;;;;;;;;;;;;;;;9.00;68.72;97798.26;2121610;83;20306;-74
2021/05/07 02:29:39;;;;;;;;;;;;;;;8.98;68.34;97798.84;2127398;84;20240;-73
2021/05/07 02:32:41;;;;;;;;;;;;;;;8.90;68.30;97795.94;2127472;84;20546;-73
2021/05/07 02:35:42;;;;;;;;;;;;;;;8.79;68.84;97794.09;2127590;84;20228;-74
2021/05/07 02:38:44;;;;;;;;;;;;;;;8.69;68.91;97798.27;2127406;84;20626;-74
2021/05/07 02:41:46;;;;;;;;;;;;;;;8.63;69.27;97796.94;2127391;84;20247;-74
2021/05/07 02:44:48;;;;;;;;;;;;;;;8.61;69.39;97785.73;2101290;84;20239;-75
2021/05/07 02:47:50;;;;;;;;;;;;;;;8.66;70.07;97777.12;2127391;84;20174;-74
2021/05/07 02:50:52;;;;;;;;;;;;;;;8.64;69.75;97774.23;2127500;84;20144;-74
2021/05/07 02:53:55;;;;;;;;;;;;;;;8.74;69.89;97767.91;2127362;84;20594;-74
2021/05/07 02:56:57;;;;;;;;;;;;;;;8.73;69.78;97762.30;2100938;84;20204;-74
2021/05/07 02:59:59;;;;;;;;;;;;;;;8.78;70.00;97760.21;2101176;84;20516;-74
2021/05/07 03:03:01;;;;;;;;;;;;;;;8.82;70.08;97755.09;2127321;84;20288;-74
2021/05/07 03:06:03;;;;;;;;;;;;;;;8.75;70.03;97749.48;2127347;84;20243;-74
2021/05/07 03:09:05;;;;;;;;;;;;;;;8.73;70.27;97746.61;2127457;84;20478;-74
2021/05/07 03:12:07;;;;;;;;;;;;;;;8.74;70.57;97746.50;2127375;84;20240;-74
2021/05/07 03:15:10;;;;;;;;;;;;;;;8.74;70.51;97738.66;2078393;84;22219;-74
2021/05/07 03:18:12;;;;;;;;;;;;;;;8.80;70.47;97734.30;2127552;84;20153;-74
2021/05/07 03:21:14;;;;;;;;;;;;;;;8.78;70.45;97728.35;2127378;84;20232;-73
2021/05/07 03:24:16;;;;;;;;;;;;;;;8.72;70.70;97726.63;2127334;84;20153;-76
2021/05/07 03:27:19;;;;;;;;;;;;;;;8.71;70.91;97727.59;2124433;82;20189;-76
2021/05/07 03:30:21;;;;;;;;;;;;;;;8.68;70.86;97729.95;2091891;84;20451;-76
2021/05/07 03:33:24;;;;;;;;;;;;;;;8.65;71.17;97726.25;2098499;85;20489;-76
2021/05/07 03:36:26;;;;;;;;;;;;;;;8.63;71.68;97727.67;2074601;85;20242;-77
2021/05/07 03:39:27;;;;;;;;;;;;;;;8.62;71.45;97722.07;2098495;85;20242;-76
2021/05/07 03:42:32;;;;;;;;;;;;;;;8.61;71.62;97713.03;2098387;84;20433;-76
2021/05/07 03:45:37;;;;;;;;;;;;;;;8.57;71.80;97710.27;2098327;85;20135;-76
2021/05/07 03:48:44;;;;;;;;;;;;;;;8.57;71.89;97707.66;2098412;84;20221;-76
2021/05/07 03:51:46;;;;;;;;;;;;;;;8.54;71.99;97710.48;2098356;85;20234;-76
2021/05/07 03:54:48;;;;;;;;;;;;;;;8.55;71.95;97706.45;2098487;84;20513;-76
2021/05/07 03:57:50;;;;;;;;;;;;;;;8.55;72.19;97706.45;2098401;84;20544;-76
2021/05/07 04:00:52;;;;;;;;;;;;;;;8.55;72.22;97708.22;2098397;84;20230;-76
2021/05/07 04:03:54;;;;;;;;;;;;;;;8.63;72.30;97713.30;2098341;84;20270;-76
2021/05/07 04:06:56;;;;;;;;;;;;;;;8.78;71.93;97707.92;2098532;84;20147;-76
2021/05/07 04:10:01;;;;;;;;;;;;;;;8.75;71.79;97714.19;2098449;84;20234;-76
2021/05/07 04:16:22;;;;;;;;;;;;;;;8.77;72.13;97708.85;2098407;85;20505;-76
2021/05/07 04:19:24;;;;;;;;;;;;;;;8.79;71.88;97706.95;2098701;84;20178;-76
2021/05/07 04:22:26;;;;;;;;;;;;;;;8.80;72.14;97705.53;2098371;84;20142;-76
2021/05/07 04:25:28;;;;;;;;;;;;;;;8.82;72.22;97706.27;2098258;84;20273;-76
2021/05/07 04:28:31;;;;;;;;;;;;;;;8.77;72.27;97708.85;2091239;84;20481;-76
2021/05/07 04:31:33;;;;;;;;;;;;;;;8.82;72.50;97701.05;2127293;84;20125;-76
2021/05/07 04:34:35;;;;;;;;;;;;;;;8.84;72.37;97697.02;2127292;84;20266;-76
2021/05/07 04:37:37;;;;;;;;;;;;;;;8.80;72.64;97696.86;2127372;84;20498;-76
2021/05/07 04:40:39;;;;;;;;;;;;;;;8.73;72.48;97698.25;2127289;84;20235;-76
2021/05/07 04:43:41;;;;;;;;;;;;;;;8.71;72.84;97698.36;2127290;84;20227;-76
2021/05/07 04:46:43;;;;;;;;;;;;;;;8.66;72.91;97695.22;2127235;84;20554;-76
2021/05/07 04:49:45;;;;;;;;;;;;;;;8.60;73.16;97690.44;2127293;84;20284;-76
2021/05/07 04:52:47;;;;;;;;;;;;;;;8.56;73.42;97690.30;2127318;84;20194;-76
2021/05/07 04:55:49;;;;;;;;;;;;;;;8.61;74.44;97689.02;2127255;84;20531;-76
2021/05/07 04:58:51;;;;;;;;;;;;;;;8.64;74.03;97699.73;2127380;84;20504;-76
2021/05/07 05:01:53;;;;;;;;;;;;;;;8.64;73.57;97690.11;2127522;84;20149;-76
2021/05/07 05:04:55;;;;;;;;;;;;;;;8.69;73.96;97691.08;2127239;84;20271;-76
2021/05/07 05:07:57;;;;;;;;;;;;;;;8.68;73.77;97690.74;2127320;84;20232;-76
2021/05/07 05:10:59;;;;;;;;;;;;;;;8.68;74.15;97689.44;2101000;84;20164;-76
2021/05/07 05:14:02;;;;;;;;;;;;;;;8.68;73.89;97690.74;2127252;84;20134;-76
2021/05/07 05:17:04;;;;;;;;;;;;;;;8.67;74.24;97684.66;2127231;84;20136;-76
2021/05/07 05:20:06;;;;;;;;;;;;;;;8.72;74.48;97692.65;2127241;84;20236;-76
2021/05/07 05:23:08;;;;;;;;;;;;;;;8.72;74.11;97679.58;2127621;84;20240;-76
2021/05/07 05:26:10;;;;;;;;;;;;;;;8.72;74.23;97690.03;2127285;84;20287;-76
2021/05/07 05:29:13;;;;;;;;;;;;;;;8.81;74.13;97702.47;2119275;82;20229;-76
2021/05/07 05:32:15;;;;;;;;;;;;;;;8.83;74.25;97690.10;2115731;84;20458;-76
2021/05/07 05:35:17;;;;;;;;;;;;;;;8.91;74.41;97690.39;2115961;84;20126;-76
2021/05/07 05:38:19;;;;;;;;;;;;;;;9.04;74.07;97698.19;2098403;85;20126;-75
2021/05/07 05:41:21;;;;;;;;;;;;;;;9.09;73.90;97692.61;2098414;84;20518;-75
2021/05/07 05:44:23;;;;;;;;;;;;;;;9.19;74.14;97686.61;2098266;85;20230;-75
2021/05/07 05:47:25;;;;;;;;;;;;;;;9.30;74.00;97687.11;2098219;84;20413;-75
2021/05/07 05:50:27;;;;;;;;;;;;;;;9.43;74.26;97683.59;2098652;84;20234;-75
2021/05/07 05:53:29;;;;;;;;;;;;;;;9.52;73.66;97687.67;2098306;84;20233;-75
2021/05/07 05:56:31;;;;;;;;;;;;;;;9.71;73.29;97681.88;2098296;84;20230;-75
2021/05/07 05:59:33;;;;;;;;;;;;;;;9.93;73.21;97681.55;2098395;84;20505;-75
2021/05/07 06:02:35;;;;;;;;;;;;;;;10.22;72.99;97683.72;2098286;84;20567;-75
2021/05/07 06:05:37;;;;;;;;;;;;;;;10.60;72.68;97677.75;2074187;85;20234;-75
2021/05/07 06:08:39;;;;;;;;;;;;;;;10.91;72.08;97682.20;2098305;84;20254;-75
2021/05/07 06:11:41;;;;;;;;;;;;;;;11.13;71.35;97683.58;2098531;84;20251;-74
2021/05/07 06:14:43;;;;;;;;;;;;;;;11.25;70.92;97682.59;2098434;84;20251;-74
2021/05/07 06:17:45;;;;;;;;;;;;;;;11.32;70.47;97685.06;2098347;85;20584;-74
2021/05/07 06:20:47;;;;;;;;;;;;;;;11.44;70.53;97681.41;2098337;85;20517;-74
2021/05/07 06:23:50;;;;;;;;;;;;;;;11.49;69.50;97688.08;2098268;84;20158;-75
2021/05/07 06:26:52;;;;;;;;;;;;;;;11.49;69.76;97689.39;2098262;84;20136;-75
2021/05/07 06:29:54;;;;;;;;;;;;;;;11.44;69.37;97687.15;2082189;83;20150;-75
2021/05/07 06:32:56;;;;;;;;;;;;;;;11.49;68.99;97676.26;2079275;85;20166;-75
2021/05/07 06:35:58;;;;;;;;;;;;;;;11.58;69.76;97682.08;2079237;86;20226;-75
2021/05/07 06:39:00;;;;;;;;;;;;;;;11.72;69.92;97688.78;2079291;85;20536;-75
2021/05/07 06:42:02;;;;;;;;;;;;;;;11.89;70.02;97692.13;2079335;85;20265;-75
2021/05/07 06:45:04;;;;;;;;;;;;;;;11.96;68.84;97693.31;2079339;85;20522;-75
2021/05/07 06:48:06;;;;;;;;;;;;;;;11.95;69.31;97694.30;2079260;85;20233;-75
2021/05/07 06:51:08;;;;;;;;;;;;;;;11.84;68.67;97699.59;2079275;85;20255;-74
2021/05/07 06:54:10;;;;;;;;;;;;;;;11.56;69.74;97699.24;2079276;86;20273;-74
2021/05/07 06:57:12;;;;;;;;;;;;;;;11.43;70.07;97694.66;2079351;85;20172;-74
2021/05/07 07:00:14;;;;;;;;;;;;;;;11.34;69.88;97700.20;2079273;85;20249;-74
2021/05/07 07:03:16;;;;;;;;;;;;;;;11.18;71.22;97697.99;2079273;85;20277;-75
2021/05/07 07:06:18;;;;;;;;;;;;;;;11.11;71.71;97698.14;2079431;85;20238;-74
2021/05/07 07:09:20;;;;;;;;;;;;;;;11.15;71.13;97693.45;2079217;85;20237;-75
2021/05/07 07:12:22;;;;;;;;;;;;;;;11.22;71.08;97692.85;2079260;85;20281;-74
2021/05/07 07:15:24;;;;;;;;;;;;;;;11.38;71.63;97690.29;2079457;85;20246;-74
2021/05/07 07:18:26;;;;;;;;;;;;;;;11.56;70.84;97695.80;2079229;86;20241;-74
2021/05/07 07:21:28;;;;;;;;;;;;;;;11.64;70.30;97688.12;2079340;85;20233;-74
2021/05/07 07:24:30;;;;;;;;;;;;;;;11.70;71.31;97695.97;2079455;86;20250;-74
2021/05/07 07:27:32;;;;;;;;;;;;;;;11.75;70.41;97700.34;2079209;86;20505;-74
2021/05/07 07:30:34;;;;;;;;;;;;;;;11.82;70.20;97702.80;2085906;84;20166;-74
2021/05/07 07:33:36;;;;;;;;;;;;;;;11.83;70.70;97704.48;2127657;84;20236;-74
2021/05/07 07:36:38;;;;;;;;;;;;;;;11.92;70.51;97705.03;2127542;84;20141;-74
2021/05/07 07:39:41;;;;;;;;;;;;;;;12.03;70.23;97704.63;2127300;84;20232;-74
2021/05/07 07:42:43;;;;;;;;;;;;;;;11.84;68.93;97706.16;2127369;84;20223;-74
2021/05/07 07:45:45;;;;;;;;;;;;;;;11.69;69.05;97712.19;2127730;84;20288;-74
2021/05/07 07:48:47;;;;;;;;;;;;;;;11.67;69.85;97706.25;2127419;84;20235;-74
2021/05/07 07:51:49;;;;;;;;;;;;;;;11.67;70.15;97714.13;2128096;84;20235;-74
2021/05/07 07:54:51;;;;;;;;;;;;;;;11.58;71.74;97720.16;2127348;84;20231;-74
2021/05/07 07:57:53;;;;;;;;;;;;;;;11.42;70.27;97711.37;2127304;84;20244;-75
2021/05/07 08:00:55;;;;;;;;;;;;;;;11.20;70.50;97718.38;2127329;84;20332;-75
2021/05/07 08:03:57;;;;;;;;;;;;;;;11.08;72.08;97714.14;2127396;84;20256;-75
2021/05/07 08:07:00;;;;;;;;;;;;;;;11.13;71.93;97711.95;2127248;84;20235;-75
2021/05/07 08:10:02;;;;;;;;;;;;;;;11.36;72.84;97721.07;2127445;84;20440;-75
2021/05/07 08:13:04;;;;;;;;;;;;;;;11.67;70.99;97718.55;2100997;84;20224;-74
2021/05/07 08:16:06;;;;;;;;;;;;;;;11.99;70.35;97721.13;2127266;84;20224;-75
2021/05/07 08:19:08;;;;;;;;;;;;;;;12.10;68.17;97730.75;2127315;84;20228;-74
2021/05/07 08:22:10;;;;;;;;;;;;;;;12.18;69.90;97723.52;2127640;84;20152;-74
2021/05/07 08:25:12;;;;;;;;;;;;;;;12.45;68.84;97729.03;2127260;84;20236;-75
2021/05/07 08:28:14;;;;;;;;;;;;;;;12.54;68.32;97734.47;2126534;83;20148;-75
2021/05/07 08:31:16;;;;;;;;;;;;;;;12.77;68.76;97735.09;2121177;84;20144;-75
2021/05/07 08:34:20;;;;;;;;;;;;;;;12.87;67.16;97724.11;2120729;84;20232;-74
2021/05/07 08:37:22;;;;;;;;;;;;;;;12.98;66.61;97725.81;2120655;84;20136;-74
2021/05/07 08:40:24;;;;;;;;;;;;;;;12.76;63.89;97744.80;2120701;84;20232;-75
2021/05/07 08:43:26;;;;;;;;;;;;;;;12.35;61.81;97753.14;2120673;84;20228;-75
2021/05/07 08:46:28;;;;;;;;;;;;;;;12.11;66.04;97738.50;2120623;84;20232;-75
2021/05/07 08:49:30;;;;;;;;;;;;;;;12.21;65.17;97747.77;2120668;84;20232;-75
2021/05/07 08:52:34;;;;;;;;;;;;;;;12.13;65.94;97748.88;2121137;84;20137;-74
2021/05/07 08:55:36;;;;;;;;;;;;;;;12.09;65.25;97758.81;2120650;84;20125;-75
2021/05/07 08:58:38;;;;;;;;;;;;;;;12.01;64.94;97749.45;2120690;84;20137;-74
2021/05/07 09:01:40;;;;;;;;;;;;;;;11.88;65.91;97750.92;2120725;84;20492;-75
2021/05/07 09:04:42;;;;;;;;;;;;;;;11.84;67.21;97752.13;2120751;84;20244;-75
2021/05/07 09:07:44;;;;;;;;;;;;;;;11.87;67.15;97761.56;2120746;84;20236;-74
2021/05/07 09:10:46;;;;;;;;;;;;;;;11.91;68.75;97770.83;2102454;84;20507;-75
2021/05/07 09:13:48;;;;;;;;;;;;;;;12.01;68.88;97777.50;2120866;84;20137;-75
2021/05/07 09:16:50;;;;;;;;;;;;;;;11.79;69.45;97777.48;2120611;84;20244;-75
2021/05/07 09:19:53;;;;;;;;;;;;;;;11.78;70.76;97778.92;2120649;84;20145;-75
2021/05/07 09:22:55;;;;;;;;;;;;;;;11.81;70.87;97791.80;2120975;84;20188;-75
2021/05/07 09:25:57;;;;;;;;;;;;;;;11.95;67.34;97793.30;2120579;84;20236;-75
2021/05/07 09:29:03;;;;;;;;;;;;;;;12.19;70.31;97786.97;2119272;83;20240;-75
2021/05/07 09:32:03;;;;;;;;;;;;;;;12.51;71.10;97776.81;2115294;84;20439;-74
2021/05/07 09:35:05;;;;;;;;;;;;;;;12.87;69.05;97775.92;2098259;85;20564;-75
2021/05/07 09:38:07;;;;;;;;;;;;;;;13.07;67.62;97793.91;2098297;84;20276;-74
2021/05/07 09:41:09;;;;;;;;;;;;;;;12.81;66.93;97800.50;2098311;84;20561;-74
2021/05/07 09:44:11;;;;;;;;;;;;;;;12.48;67.35;97804.20;2098618;84;20242;-74
2021/05/07 09:47:13;;;;;;;;;;;;;;;12.33;66.56;97795.83;2098280;84;20130;-74
2021/05/07 09:50:16;;;;;;;;;;;;;;;12.32;68.29;97805.17;2098297;84;20270;-75
2021/05/07 09:53:20;;;;;;;;;;;;;;;12.10;67.22;97801.22;2098373;85;20250;-78
2021/05/07 09:56:22;;;;;;;;;;;;;;;12.07;66.14;97795.41;2098239;84;20155;-74
2021/05/07 09:59:24;;;;;;;;;;;;;;;11.90;69.66;97819.92;2098390;84;20131;-75
2021/05/07 10:02:26;;;;;;;;;;;;;;;11.58;70.61;97823.89;2098398;84;20442;-75
2021/05/07 10:05:28;;;;;;;;;;;;;;;11.51;70.31;97815.66;2098421;84;20238;-75
2021/05/07 10:08:31;;;;;;;;;;;;;;;11.69;71.40;97819.89;2098558;84;20525;-75
2021/05/07 10:11:33;;;;;;;;;;;;;;;11.92;71.67;97815.40;2098915;84;20270;-75
2021/05/07 10:14:35;;;;;;;;;;;;;;;12.04;66.54;97808.31;2098496;84;20281;-75
2021/05/07 10:17:37;;;;;;;;;;;;;;;12.57;65.96;97813.96;2098523;85;20595;-75
2021/05/07 10:20:39;;;;;;;;;;;;;;;12.85;66.52;97815.52;2098466;84;20241;-75
2021/05/07 10:23:40;;;;;;;;;;;;;;;12.63;65.88;97840.23;2098432;84;20229;-75
2021/05/07 10:26:42;;;;;;;;;;;;;;;12.58;64.64;97823.98;2098522;84;20241;-75
2021/05/07 10:29:44;;;;;;;;;;;;;;;12.27;64.46;97831.36;2090497;83;20238;-75
2021/05/07 10:32:46;;;;;;;;;;;;;;;12.18;65.10;97831.30;2079513;85;20259;-75
2021/05/07 10:35:48;;;;;;;;;;;;;;;12.13;66.52;97833.00;2079278;85;20139;-75
2021/05/07 10:38:51;;;;;;;;;;;;;;;12.24;67.33;97836.88;2079488;85;20472;-75
2021/05/07 10:41:53;;;;;;;;;;;;;;;12.23;67.45;97850.16;2079384;85;20517;-75
2021/05/07 10:44:54;;;;;;;;;;;;;;;12.08;67.75;97855.73;2079271;85;20352;-75
2021/05/07 10:47:56;;;;;;;;;;;;;;;11.85;66.94;97867.24;2079371;85;20234;-75
2021/05/07 10:50:59;;;;;;;;;;;;;;;11.82;67.71;97868.32;2079545;85;20233;-75
2021/05/07 10:54:01;;;;;;;;;;;;;;;11.98;66.60;97885.50;2059762;86;20234;-75
2021/05/07 10:57:03;;;;;;;;;;;;;;;11.74;68.19;97878.64;2059916;86;20237;-75
2021/05/07 11:00:05;;;;;;;;;;;;;;;11.50;69.30;97890.63;2079261;85;20265;-75
2021/05/07 11:03:06;;;;;;;;;;;;;;;11.14;70.33;97896.03;2079271;85;20250;-75
2021/05/07 11:06:08;;;;;;;;;;;;;;;10.94;69.47;97888.39;2079213;85;20167;-75
2021/05/07 11:09:10;;;;;;;;;;;;;;;10.73;68.96;97902.22;2079254;86;20561;-75
2021/05/07 11:12:14;;;;;;;;;;;;;;;10.68;70.84;97899.58;2079488;85;20232;-75
2021/05/07 11:15:16;;;;;;;;;;;;;;;10.74;70.29;97902.55;2079209;85;20453;-75
2021/05/07 11:18:18;;;;;;;;;;;;;;;10.90;71.20;97893.06;2079170;86;20147;-76
2021/05/07 11:21:19;;;;;;;;;;;;;;;11.09;68.82;97902.95;2079231;86;20233;-75
2021/05/07 11:24:21;;;;;;;;;;;;;;;11.17;69.48;97889.71;2079215;85;20438;-75
2021/05/07 11:27:24;;;;;;;;;;;;;;;11.57;70.56;97895.75;2079302;85;20513;-75
2021/05/07 11:30:25;;;;;;;;;;;;;;;12.27;66.53;97887.06;2079176;84;20174;-75
2021/05/07 11:33:28;;;;;;;;;;;;;;;12.87;64.79;97882.50;2079339;85;20234;-75
2021/05/07 11:36:30;;;;;;;;;;;;;;;12.98;62.95;97867.94;2079537;85;20131;-74
2021/05/07 11:39:32;;;;;;;;;;;;;;;13.33;63.36;97871.93;2079247;85;20233;-74
2021/05/07 11:42:34;;;;;;;;;;;;;;;13.82;60.03;97889.19;2079243;85;20237;-74
2021/05/07 11:45:36;;;;;;;;;;;;;;;13.14;61.02;97881.92;2079121;85;20272;-74
2021/05/07 11:48:38;;;;;;;;;;;;;;;12.90;61.69;97887.03;2079196;85;20238;-75
2021/05/07 11:51:40;;;;;;;;;;;;;;;12.90;60.14;97887.49;2079218;85;20511;-74
2021/05/07 11:54:42;;;;;;;;;;;;;;;13.25;61.46;97885.78;2079204;85;20230;-75
2021/05/07 11:57:44;;;;;;;;;;;;;;;13.62;57.78;97883.05;2079198;86;20143;-74
2021/05/07 12:00:46;;;;;;;;;;;;;;;13.15;60.21;97863.85;2079312;85;20468;-74
2021/05/07 12:03:48;;;;;;;;;;;;;;;12.80;60.67;97865.07;2079298;85;20524;-74
2021/05/07 12:06:50;;;;;;;;;;;;;;;12.83;59.60;97878.81;2059901;86;20234;-75
2021/05/07 12:09:52;;;;;;;;;;;;;;;12.80;61.10;97873.82;2079416;85;20234;-75
2021/05/07 12:12:55;;;;;;;;;;;;;;;12.79;60.45;97877.41;2079279;86;20167;-74
2021/05/07 12:15:57;;;;;;;;;;;;;;;12.61;58.92;97877.65;2079275;85;20430;-74
2021/05/07 12:18:59;;;;;;;;;;;;;;;12.50;57.85;97879.03;2079196;86;20238;-75
2021/05/07 12:22:01;;;;;;;;;;;;;;;12.43;58.96;97868.21;2079195;85;20238;-75
2021/05/07 12:25:03;;;;;;;;;;;;;;;12.34;62.28;97898.74;2079127;85;20143;-74
2021/05/07 12:28:05;;;;;;;;;;;;;;;12.27;62.22;97873.43;2079201;85;20278;-74
2021/05/07 12:31:07;;;;;;;;;;;;;;;12.07;60.08;97879.51;2083723;84;20233;-74
2021/05/07 12:34:09;;;;;;;;;;;;;;;12.77;66.06;97878.49;2127342;84;20503;-74
2021/05/07 12:37:11;;;;;;;;;;;;;;;13.51;59.45;97885.33;2127239;84;20140;-74
2021/05/07 12:40:13;;;;;;;;;;;;;;;13.97;56.55;97900.17;2127542;84;20137;-74
2021/05/07 12:43:15;;;;;;;;;;;;;;;14.18;56.72;97900.05;2127384;84;20482;-74
2021/05/07 12:46:17;;;;;;;;;;;;;;;14.50;57.27;97882.59;2127470;84;20152;-74
2021/05/07 12:49:19;;;;;;;;;;;;;;;14.45;57.28;97896.70;2127385;84;20456;-74
2021/05/07 12:52:22;;;;;;;;;;;;;;;14.46;56.14;97895.71;2127263;84;20308;-74
2021/05/07 12:55:24;;;;;;;;;;;;;;;14.07;54.24;97908.09;2127265;84;20224;-78
2021/05/07 12:58:26;;;;;;;;;;;;;;;14.37;55.57;97908.44;2127286;84;20149;-74
2021/05/07 13:01:28;;;;;;;;;;;;;;;14.64;53.60;97918.30;2101223;84;20275;-74
2021/05/07 13:04:30;;;;;;;;;;;;;;;14.70;52.27;97912.94;2127200;84;20136;-74
2021/05/07 13:07:32;;;;;;;;;;;;;;;14.54;55.44;97929.33;2127346;84;20507;-74
2021/05/07 13:10:34;;;;;;;;;;;;;;;14.88;50.11;97927.55;2127257;84;20137;-74
2021/05/07 13:13:39;;;;;;;;;;;;;;;14.26;52.78;97951.59;2127261;84;20240;-74
2021/05/07 13:16:40;;;;;;;;;;;;;;;13.72;53.59;97968.72;2127265;84;20443;-74
2021/05/07 13:19:42;;;;;;;;;;;;;;;13.92;53.45;97935.33;2127583;84;20153;-74
2021/05/07 13:22:44;;;;;;;;;;;;;;;14.12;52.01;97938.83;2127457;84;20184;-74
2021/05/07 13:25:46;;;;;;;;;;;;;;;13.83;54.20;97936.98;2127301;84;20550;-74
2021/05/07 13:28:49;;;;;;;;;;;;;;;13.52;52.65;97946.28;2127474;84;20455;-74
2021/05/07 13:31:51;;;;;;;;;;;;;;;13.20;52.49;97941.94;2117643;83;20140;-74
2021/05/07 13:34:53;;;;;;;;;;;;;;;13.24;51.65;97951.25;2115743;84;20416;-74
2021/05/07 13:37:55;;;;;;;;;;;;;;;13.04;51.63;97958.22;2098638;85;20178;-74
2021/05/07 13:40:57;;;;;;;;;;;;;;;13.16;55.02;97951.92;2098539;84;20234;-74
2021/05/07 13:43:59;;;;;;;;;;;;;;;13.56;51.81;97962.17;2098407;84;20231;-74
2021/05/07 13:47:01;;;;;;;;;;;;;;;13.33;51.14;97968.05;2098245;84;20151;-74
2021/05/07 13:50:03;;;;;;;;;;;;;;;13.37;53.14;97968.67;2098433;84;20138;-74
2021/05/07 13:53:05;;;;;;;;;;;;;;;13.28;51.88;97964.51;2098621;84;20276;-74
2021/05/07 13:56:07;;;;;;;;;;;;;;;13.84;52.01;97956.61;2098297;84;20230;-74
2021/05/07 13:59:09;;;;;;;;;;;;;;;14.26;50.12;97962.15;2098258;84;20247;-74
2021/05/07 14:02:12;;;;;;;;;;;;;;;14.45;49.74;97973.22;2098307;84;20434;-74
2021/05/07 14:05:14;;;;;;;;;;;;;;;14.36;48.51;97978.81;2098466;84;20498;-74
2021/05/07 14:08:16;;;;;;;;;;;;;;;13.90;51.06;97985.55;2098393;85;20230;-74
2021/05/07 14:11:18;;;;;;;;;;;;;;;14.24;49.22;97985.20;2098396;84;20421;-78
2021/05/07 14:14:20;;;;;;;;;;;;;;;14.24;49.46;97991.80;2074454;85;20187;-75
2021/05/07 14:17:22;;;;;;;;;;;;;;;14.47;47.85;98000.78;2098258;84;20242;-74
2021/05/07 14:20:24;;;;;;;;;;;;;;;13.93;46.14;98006.86;2098389;84;20505;-74
2021/05/07 14:23:26;;;;;;;;;;;;;;;13.33;49.90;98018.95;2098268;84;20186;-74
2021/05/07 14:26:28;;;;;;;;;;;;;;;12.99;53.05;98012.58;2098201;84;20238;-75
2021/05/07 14:29:29;;;;;;;;;;;;;;;13.22;51.51;98014.25;2098291;84;20257;-74
2021/05/07 14:32:32;;;;;;;;;;;;;;;13.78;51.32;98012.51;2086479;83;20230;-74
2021/05/07 14:35:33;;;;;;;;;;;;;;;14.03;49.52;98008.54;2127500;84;20252;-74
2021/05/07 14:38:35;;;;;;;;;;;;;;;14.02;49.41;98004.72;2127316;84;20579;-74
2021/05/07 14:41:37;;;;;;;;;;;;;;;13.61;47.87;98027.64;2127227;84;20228;-75
2021/05/07 14:44:39;;;;;;;;;;;;;;;13.05;49.94;98024.88;2127167;84;20227;-74
2021/05/07 14:47:41;;;;;;;;;;;;;;;12.80;50.59;98017.23;2127235;84;20136;-74
2021/05/07 14:50:43;;;;;;;;;;;;;;;12.78;50.14;98019.63;2127595;84;20141;-74
2021/05/07 14:53:45;;;;;;;;;;;;;;;12.87;53.52;98017.53;2127342;84;20271;-75
2021/05/07 14:56:47;;;;;;;;;;;;;;;12.97;50.96;98026.82;2127354;84;20499;-74
2021/05/07 14:59:49;;;;;;;;;;;;;;;12.64;51.12;98024.70;2127394;84;20145;-76
2021/05/07 15:02:51;;;;;;;;;;;;;;;12.56;49.02;98032.42;2127376;84;20149;-74
2021/05/07 15:05:56;;;;;;;;;;;;;;;12.35;50.91;98008.20;2127329;84;20232;-74
2021/05/07 15:08:57;;;;;;;;;;;;;;;12.85;49.89;98021.28;2127271;84;20228;-74
2021/05/07 15:11:59;;;;;;;;;;;;;;;14.47;46.35;98008.70;2101320;84;20431;-74
2021/05/07 15:15:01;;;;;;;;;;;;;;;15.04;45.12;97999.56;2127697;84;20157;-74
2021/05/07 15:18:03;;;;;;;;;;;;;;;14.19;45.72;98012.00;2127362;84;20292;-74
2021/05/07 15:21:05;;;;;;;;;;;;;;;13.24;51.11;98023.66;2127316;84;20331;-74
2021/05/07 15:24:08;;;;;;;;;;;;;;;12.75;51.97;98027.30;2127353;84;20232;-74
2021/05/07 15:27:10;;;;;;;;;;;;;;;13.02;50.60;98024.66;2127292;84;20189;-74
2021/05/07 15:30:11;;;;;;;;;;;;;;;12.43;52.54;98016.80;2126911;82;20136;-74
2021/05/07 15:33:13;;;;;;;;;;;;;;;12.16;52.90;98029.06;2120770;84;20232;-74
2021/05/07 15:36:15;;;;;;;;;;;;;;;11.94;53.07;98032.92;2120712;84;20172;-75
2021/05/07 15:39:17;;;;;;;;;;;;;;;11.83;54.90;98034.70;2120984;84;20492;-75
2021/05/07 15:42:19;;;;;;;;;;;;;;;11.70;53.94;98027.77;2121062;84;20176;-75
2021/05/07 15:45:21;;;;;;;;;;;;;;;11.73;54.66;98030.16;2120684;84;20228;-75
2021/05/07 15:48:23;;;;;;;;;;;;;;;11.67;55.52;98034.58;2120720;84;20272;-76
2021/05/07 15:51:25;;;;;;;;;;;;;;;11.67;55.41;98039.83;2120849;84;20296;-75
2021/05/07 15:54:27;;;;;;;;;;;;;;;11.70;54.48;98040.91;2120784;84;20260;-75